aviador You're here:

SLVR Decoded Metar

SANTA CRUZ in BOLIVIA
Report Time2017-12-11 22:00:00
UTC Time2017-12-11 22:54:15
Flight Rules vfr VFR
Wind150° at 04 kt
W.Decomp.*RWY 16: 4.0 kt HW 0.1 kt LCW
W.Rank150° ranks 11
Current wind is below 150° avg. (7.7)
Visibility9999 m
Phenomena:N/A
Clouds:Few 023 Hf
Broken 200 Hf
Expected CloudBase > 3,200 ft AGL from Temp-Dew spread
Ceiling20,000 ft
Temp30°C (ISA +17)
Dew Point22°C (62% RH)
Heat Index33.2°C
QNH1007 hPa
Density Alt3,773 ft
Elevation1,224 ft
Report Wrong Elevation
Raw Report
METAR SLVR 112200Z 15004KT 9999 FEW023 BKN200 30/22 Q1007=

Extra information for SLVR:More info

Metar Taf Metar & Taf Last 4 Metars F.Rules Stats Wind Profile Meteogram Temp Stats Airport Information Weather charts Add Link Nearby VenuesMetar ALERT Operation Metar Decoded Social comments